sensor_id;sensor_type;location;lat;lon;timestamp;P1;durP1;ratioP1;P2;durP2;ratioP2
53072;SDS011;38955;48.916;2.336;2023-07-28T00:01:42;3.53;;;2.08;;
53072;SDS011;38955;48.916;2.336;2023-07-28T00:03:44;4.60;;;2.25;;
53072;SDS011;38955;48.916;2.336;2023-07-28T00:05:46;3.47;;;2.38;;
53072;SDS011;38955;48.916;2.336;2023-07-28T00:07:48;3.65;;;2.33;;
53072;SDS011;38955;48.916;2.336;2023-07-28T00:09:50;5.05;;;1.85;;
53072;SDS011;38955;48.916;2.336;2023-07-28T00:11:54;2.88;;;2.45;;
53072;SDS011;38955;48.916;2.336;2023-07-28T00:13:57;2.80;;;2.00;;
53072;SDS011;38955;48.916;2.336;2023-07-28T00:15:59;4.18;;;1.95;;
53072;SDS011;38955;48.916;2.336;2023-07-28T00:18:01;4.43;;;2.22;;
53072;SDS011;38955;48.916;2.336;2023-07-28T00:20:04;3.25;;;2.15;;
53072;SDS011;38955;48.916;2.336;2023-07-28T00:22:07;3.58;;;2.10;;
53072;SDS011;38955;48.916;2.336;2023-07-28T00:24:09;4.25;;;2.30;;
53072;SDS011;38955;48.916;2.336;2023-07-28T00:26:11;4.85;;;2.30;;
53072;SDS011;38955;48.916;2.336;2023-07-28T00:28:14;3.17;;;2.10;;
53072;SDS011;38955;48.916;2.336;2023-07-28T00:30:17;3.60;;;2.25;;
53072;SDS011;38955;48.916;2.336;2023-07-28T00:32:19;3.50;;;2.30;;
53072;SDS011;38955;48.916;2.336;2023-07-28T00:34:21;2.55;;;1.80;;
53072;SDS011;38955;48.916;2.336;2023-07-28T00:36:23;2.47;;;1.75;;
53072;SDS011;38955;48.916;2.336;2023-07-28T00:38:25;6.95;;;2.17;;
53072;SDS011;38955;48.916;2.336;2023-07-28T00:40:27;5.32;;;2.10;;
53072;SDS011;38955;48.916;2.336;2023-07-28T00:42:29;3.78;;;2.00;;
53072;SDS011;38955;48.916;2.336;2023-07-28T00:44:33;2.40;;;1.90;;
53072;SDS011;38955;48.916;2.336;2023-07-28T00:46:35;3.05;;;1.77;;
53072;SDS011;38955;48.916;2.336;2023-07-28T00:48:37;4.22;;;1.80;;
53072;SDS011;38955;48.916;2.336;2023-07-28T00:50:40;3.15;;;1.75;;
53072;SDS011;38955;48.916;2.336;2023-07-28T00:52:43;2.08;;;1.55;;
53072;SDS011;38955;48.916;2.336;2023-07-28T00:54:47;3.42;;;1.90;;
53072;SDS011;38955;48.916;2.336;2023-07-28T00:56:50;3.75;;;2.30;;
53072;SDS011;38955;48.916;2.336;2023-07-28T00:58:52;6.07;;;1.95;;
53072;SDS011;38955;48.916;2.336;2023-07-28T01:00:56;2.65;;;1.80;;
53072;SDS011;38955;48.916;2.336;2023-07-28T01:02:58;5.05;;;1.83;;
53072;SDS011;38955;48.916;2.336;2023-07-28T01:05:00;3.53;;;2.10;;
53072;SDS011;38955;48.916;2.336;2023-07-28T01:07:04;3.30;;;1.80;;
53072;SDS011;38955;48.916;2.336;2023-07-28T01:09:12;2.55;;;1.83;;
53072;SDS011;38955;48.916;2.336;2023-07-28T01:11:17;4.07;;;2.10;;
53072;SDS011;38955;48.916;2.336;2023-07-28T01:13:19;5.30;;;1.80;;
53072;SDS011;38955;48.916;2.336;2023-07-28T01:15:21;5.50;;;2.00;;
53072;SDS011;38955;48.916;2.336;2023-07-28T01:17:25;3.95;;;1.80;;
53072;SDS011;38955;48.916;2.336;2023-07-28T01:19:27;3.23;;;1.97;;
53072;SDS011;38955;48.916;2.336;2023-07-28T01:21:30;3.33;;;2.10;;
53072;SDS011;38955;48.916;2.336;2023-07-28T01:23:36;2.88;;;2.08;;
53072;SDS011;38955;48.916;2.336;2023-07-28T01:25:46;6.20;;;2.05;;
53072;SDS011;38955;48.916;2.336;2023-07-28T01:27:57;4.47;;;2.20;;
53072;SDS011;38955;48.916;2.336;2023-07-28T01:30:06;3.55;;;2.00;;
53072;SDS011;38955;48.916;2.336;2023-07-28T01:32:10;4.72;;;1.95;;
53072;SDS011;38955;48.916;2.336;2023-07-28T01:34:12;4.95;;;2.05;;
53072;SDS011;38955;48.916;2.336;2023-07-28T01:36:14;4.13;;;2.30;;
53072;SDS011;38955;48.916;2.336;2023-07-28T01:38:16;2.22;;;1.80;;
53072;SDS011;38955;48.916;2.336;2023-07-28T01:40:23;3.65;;;2.05;;
53072;SDS011;38955;48.916;2.336;2023-07-28T01:42:30;4.63;;;1.90;;
53072;SDS011;38955;48.916;2.336;2023-07-28T01:44:33;5.28;;;2.33;;
53072;SDS011;38955;48.916;2.336;2023-07-28T01:46:35;4.13;;;2.20;;
53072;SDS011;38955;48.916;2.336;2023-07-28T01:48:38;4.20;;;2.22;;
53072;SDS011;38955;48.916;2.336;2023-07-28T01:50:40;4.03;;;2.15;;
53072;SDS011;38955;48.916;2.336;2023-07-28T01:52:47;4.45;;;2.15;;
53072;SDS011;38955;48.916;2.336;2023-07-28T01:54:54;3.97;;;2.03;;
53072;SDS011;38955;48.916;2.336;2023-07-28T01:56:56;7.32;;;2.10;;
53072;SDS011;38955;48.916;2.336;2023-07-28T01:58:58;3.80;;;1.88;;
53072;SDS011;38955;48.916;2.336;2023-07-28T02:01:01;5.40;;;2.25;;
53072;SDS011;38955;48.916;2.336;2023-07-28T02:03:03;4.05;;;2.00;;
53072;SDS011;38955;48.916;2.336;2023-07-28T02:05:06;3.75;;;1.80;;
53072;SDS011;38955;48.916;2.336;2023-07-28T02:07:08;4.07;;;2.20;;
53072;SDS011;38955;48.916;2.336;2023-07-28T02:09:10;4.95;;;2.22;;
53072;SDS011;38955;48.916;2.336;2023-07-28T02:11:12;3.00;;;1.90;;
53072;SDS011;38955;48.916;2.336;2023-07-28T02:13:14;3.83;;;1.85;;
53072;SDS011;38955;48.916;2.336;2023-07-28T02:15:16;8.85;;;1.60;;
53072;SDS011;38955;48.916;2.336;2023-07-28T02:17:20;4.22;;;1.70;;
53072;SDS011;38955;48.916;2.336;2023-07-28T02:19:22;6.88;;;2.45;;
53072;SDS011;38955;48.916;2.336;2023-07-28T02:21:24;3.03;;;1.90;;
53072;SDS011;38955;48.916;2.336;2023-07-28T02:23:26;4.07;;;1.95;;
53072;SDS011;38955;48.916;2.336;2023-07-28T02:25:28;3.65;;;1.90;;
53072;SDS011;38955;48.916;2.336;2023-07-28T02:27:30;2.47;;;1.55;;
53072;SDS011;38955;48.916;2.336;2023-07-28T02:29:32;3.10;;;1.75;;
53072;SDS011;38955;48.916;2.336;2023-07-28T02:31:34;2.08;;;1.77;;
53072;SDS011;38955;48.916;2.336;2023-07-28T02:33:37;4.57;;;2.00;;
53072;SDS011;38955;48.916;2.336;2023-07-28T02:35:39;2.35;;;1.70;;
53072;SDS011;38955;48.916;2.336;2023-07-28T02:37:41;3.58;;;1.80;;
53072;SDS011;38955;48.916;2.336;2023-07-28T02:39:44;2.45;;;1.40;;
53072;SDS011;38955;48.916;2.336;2023-07-28T02:41:46;2.28;;;1.50;;
53072;SDS011;38955;48.916;2.336;2023-07-28T02:43:48;3.05;;;1.58;;
53072;SDS011;38955;48.916;2.336;2023-07-28T02:45:53;2.70;;;1.63;;
53072;SDS011;38955;48.916;2.336;2023-07-28T02:47:56;3.92;;;1.40;;
53072;SDS011;38955;48.916;2.336;2023-07-28T02:49:59;3.38;;;1.63;;
53072;SDS011;38955;48.916;2.336;2023-07-28T02:52:02;2.28;;;1.30;;
53072;SDS011;38955;48.916;2.336;2023-07-28T02:54:04;2.25;;;1.45;;
53072;SDS011;38955;48.916;2.336;2023-07-28T02:56:07;3.50;;;1.45;;
53072;SDS011;38955;48.916;2.336;2023-07-28T02:58:09;2.50;;;1.70;;
53072;SDS011;38955;48.916;2.336;2023-07-28T03:00:12;2.10;;;1.30;;
53072;SDS011;38955;48.916;2.336;2023-07-28T03:02:15;4.07;;;1.83;;
53072;SDS011;38955;48.916;2.336;2023-07-28T03:04:17;4.55;;;1.77;;
53072;SDS011;38955;48.916;2.336;2023-07-28T03:06:22;1.55;;;1.30;;
53072;SDS011;38955;48.916;2.336;2023-07-28T03:08:25;2.90;;;1.88;;
53072;SDS011;38955;48.916;2.336;2023-07-28T03:10:27;2.75;;;1.30;;
53072;SDS011;38955;48.916;2.336;2023-07-28T03:12:29;2.72;;;1.55;;
53072;SDS011;38955;48.916;2.336;2023-07-28T03:14:31;2.90;;;1.40;;
53072;SDS011;38955;48.916;2.336;2023-07-28T03:16:33;1.73;;;1.30;;
53072;SDS011;38955;48.916;2.336;2023-07-28T03:18:36;2.42;;;1.30;;
53072;SDS011;38955;48.916;2.336;2023-07-28T03:20:38;4.38;;;1.40;;
53072;SDS011;38955;48.916;2.336;2023-07-28T03:22:41;1.77;;;1.10;;
53072;SDS011;38955;48.916;2.336;2023-07-28T03:24:43;3.22;;;1.23;;
53072;SDS011;38955;48.916;2.336;2023-07-28T03:26:47;2.25;;;1.33;;
53072;SDS011;38955;48.916;2.336;2023-07-28T03:28:49;4.30;;;1.25;;
53072;SDS011;38955;48.916;2.336;2023-07-28T03:30:51;2.03;;;1.55;;
53072;SDS011;38955;48.916;2.336;2023-07-28T03:32:53;2.70;;;1.60;;
53072;SDS011;38955;48.916;2.336;2023-07-28T03:34:56;3.67;;;1.60;;
53072;SDS011;38955;48.916;2.336;2023-07-28T03:36:58;2.55;;;1.38;;
53072;SDS011;38955;48.916;2.336;2023-07-28T03:39:01;2.13;;;1.25;;
53072;SDS011;38955;48.916;2.336;2023-07-28T03:41:03;2.58;;;1.77;;
53072;SDS011;38955;48.916;2.336;2023-07-28T03:43:06;2.08;;;1.25;;
53072;SDS011;38955;48.916;2.336;2023-07-28T03:45:08;1.42;;;1.30;;
53072;SDS011;38955;48.916;2.336;2023-07-28T03:47:11;3.15;;;1.67;;
53072;SDS011;38955;48.916;2.336;2023-07-28T03:49:13;2.47;;;1.30;;
53072;SDS011;38955;48.916;2.336;2023-07-28T03:51:15;3.67;;;1.30;;
53072;SDS011;38955;48.916;2.336;2023-07-28T03:53:17;3.47;;;1.42;;
53072;SDS011;38955;48.916;2.336;2023-07-28T03:55:20;2.80;;;1.20;;
53072;SDS011;38955;48.916;2.336;2023-07-28T03:57:23;2.45;;;1.48;;
53072;SDS011;38955;48.916;2.336;2023-07-28T03:59:25;2.75;;;1.60;;
53072;SDS011;38955;48.916;2.336;2023-07-28T04:01:27;2.95;;;1.17;;
53072;SDS011;38955;48.916;2.336;2023-07-28T04:03:29;1.30;;;1.20;;
53072;SDS011;38955;48.916;2.336;2023-07-28T04:05:31;5.47;;;1.77;;
53072;SDS011;38955;48.916;2.336;2023-07-28T04:07:33;1.95;;;1.40;;
53072;SDS011;38955;48.916;2.336;2023-07-28T04:09:35;3.42;;;1.50;;
53072;SDS011;38955;48.916;2.336;2023-07-28T04:11:38;2.45;;;1.30;;
53072;SDS011;38955;48.916;2.336;2023-07-28T04:13:40;2.72;;;1.42;;
53072;SDS011;38955;48.916;2.336;2023-07-28T04:15:43;3.22;;;1.40;;
53072;SDS011;38955;48.916;2.336;2023-07-28T04:17:45;3.10;;;1.20;;
53072;SDS011;38955;48.916;2.336;2023-07-28T04:19:47;2.30;;;1.25;;
53072;SDS011;38955;48.916;2.336;2023-07-28T04:21:49;5.38;;;1.35;;
53072;SDS011;38955;48.916;2.336;2023-07-28T04:23:51;2.85;;;1.40;;
53072;SDS011;38955;48.916;2.336;2023-07-28T04:25:54;2.67;;;1.50;;
53072;SDS011;38955;48.916;2.336;2023-07-28T04:27:57;1.90;;;1.27;;
53072;SDS011;38955;48.916;2.336;2023-07-28T04:29:59;2.20;;;1.20;;
53072;SDS011;38955;48.916;2.336;2023-07-28T04:32:01;4.05;;;1.27;;
53072;SDS011;38955;48.916;2.336;2023-07-28T04:34:03;2.03;;;1.30;;
53072;SDS011;38955;48.916;2.336;2023-07-28T04:36:06;4.15;;;1.50;;
53072;SDS011;38955;48.916;2.336;2023-07-28T04:38:08;1.63;;;1.20;;
53072;SDS011;38955;48.916;2.336;2023-07-28T04:40:10;4.13;;;1.30;;
53072;SDS011;38955;48.916;2.336;2023-07-28T04:42:17;2.13;;;1.45;;
53072;SDS011;38955;48.916;2.336;2023-07-28T04:44:20;2.03;;;1.27;;
53072;SDS011;38955;48.916;2.336;2023-07-28T04:46:22;2.40;;;1.30;;
53072;SDS011;38955;48.916;2.336;2023-07-28T04:48:24;1.60;;;1.20;;
53072;SDS011;38955;48.916;2.336;2023-07-28T04:50:28;1.63;;;1.15;;
53072;SDS011;38955;48.916;2.336;2023-07-28T04:52:30;2.35;;;1.10;;
53072;SDS011;38955;48.916;2.336;2023-07-28T04:54:32;4.55;;;1.45;;
53072;SDS011;38955;48.916;2.336;2023-07-28T04:56:34;1.95;;;1.00;;
53072;SDS011;38955;48.916;2.336;2023-07-28T04:58:37;1.85;;;0.82;;
53072;SDS011;38955;48.916;2.336;2023-07-28T05:00:40;1.38;;;1.05;;
53072;SDS011;38955;48.916;2.336;2023-07-28T05:02:42;1.25;;;0.85;;
53072;SDS011;38955;48.916;2.336;2023-07-28T05:04:44;2.58;;;0.80;;
53072;SDS011;38955;48.916;2.336;2023-07-28T05:06:46;1.73;;;1.00;;
53072;SDS011;38955;48.916;2.336;2023-07-28T05:08:48;1.75;;;0.90;;
53072;SDS011;38955;48.916;2.336;2023-07-28T05:10:50;2.08;;;0.90;;
53072;SDS011;38955;48.916;2.336;2023-07-28T05:12:52;1.40;;;0.80;;
53072;SDS011;38955;48.916;2.336;2023-07-28T05:14:54;1.80;;;1.00;;
53072;SDS011;38955;48.916;2.336;2023-07-28T05:16:58;3.47;;;0.88;;
53072;SDS011;38955;48.916;2.336;2023-07-28T05:19:00;1.25;;;0.73;;
53072;SDS011;38955;48.916;2.336;2023-07-28T05:21:03;1.30;;;1.00;;
53072;SDS011;38955;48.916;2.336;2023-07-28T05:23:05;1.30;;;0.80;;
53072;SDS011;38955;48.916;2.336;2023-07-28T05:25:07;1.17;;;0.85;;
53072;SDS011;38955;48.916;2.336;2023-07-28T05:27:10;1.83;;;0.63;;
53072;SDS011;38955;48.916;2.336;2023-07-28T05:29:12;0.95;;;0.55;;
53072;SDS011;38955;48.916;2.336;2023-07-28T05:31:14;1.35;;;0.80;;
53072;SDS011;38955;48.916;2.336;2023-07-28T05:33:18;2.03;;;0.70;;
53072;SDS011;38955;48.916;2.336;2023-07-28T05:35:20;2.10;;;1.00;;
53072;SDS011;38955;48.916;2.336;2023-07-28T05:37:22;2.63;;;0.70;;
53072;SDS011;38955;48.916;2.336;2023-07-28T05:39:24;0.60;;;0.60;;
53072;SDS011;38955;48.916;2.336;2023-07-28T05:41:26;1.85;;;1.10;;
53072;SDS011;38955;48.916;2.336;2023-07-28T05:43:29;1.33;;;0.70;;
53072;SDS011;38955;48.916;2.336;2023-07-28T05:45:31;1.67;;;0.70;;
53072;SDS011;38955;48.916;2.336;2023-07-28T05:47:33;3.75;;;0.73;;
53072;SDS011;38955;48.916;2.336;2023-07-28T05:49:37;1.48;;;0.80;;
53072;SDS011;38955;48.916;2.336;2023-07-28T05:51:39;1.13;;;0.65;;
53072;SDS011;38955;48.916;2.336;2023-07-28T05:53:41;1.13;;;0.70;;
53072;SDS011;38955;48.916;2.336;2023-07-28T05:55:43;1.05;;;0.55;;
53072;SDS011;38955;48.916;2.336;2023-07-28T05:57:45;0.60;;;0.60;;
53072;SDS011;38955;48.916;2.336;2023-07-28T05:59:47;2.70;;;0.90;;
53072;SDS011;38955;48.916;2.336;2023-07-28T06:01:50;2.72;;;0.60;;
53072;SDS011;38955;48.916;2.336;2023-07-28T06:03:52;0.60;;;0.60;;
53072;SDS011;38955;48.916;2.336;2023-07-28T06:08:00;1.10;;;0.68;;
53072;SDS011;38955;48.916;2.336;2023-07-28T06:10:03;1.30;;;0.93;;
53072;SDS011;38955;48.916;2.336;2023-07-28T06:12:06;2.92;;;0.60;;
53072;SDS011;38955;48.916;2.336;2023-07-28T06:14:08;1.92;;;0.70;;
53072;SDS011;38955;48.916;2.336;2023-07-28T06:16:10;1.13;;;0.70;;
53072;SDS011;38955;48.916;2.336;2023-07-28T06:18:13;1.85;;;0.70;;
53072;SDS011;38955;48.916;2.336;2023-07-28T06:20:16;2.35;;;0.68;;
53072;SDS011;38955;48.916;2.336;2023-07-28T06:22:19;1.73;;;0.98;;
53072;SDS011;38955;48.916;2.336;2023-07-28T06:24:21;3.13;;;0.60;;
53072;SDS011;38955;48.916;2.336;2023-07-28T06:26:23;4.70;;;0.88;;
53072;SDS011;38955;48.916;2.336;2023-07-28T06:28:25;2.47;;;0.93;;
53072;SDS011;38955;48.916;2.336;2023-07-28T06:30:27;2.63;;;0.60;;
53072;SDS011;38955;48.916;2.336;2023-07-28T06:32:30;2.58;;;0.70;;
53072;SDS011;38955;48.916;2.336;2023-07-28T06:34:32;7.57;;;0.73;;
53072;SDS011;38955;48.916;2.336;2023-07-28T06:36:34;4.90;;;1.38;;
53072;SDS011;38955;48.916;2.336;2023-07-28T06:38:38;6.60;;;0.90;;
53072;SDS011;38955;48.916;2.336;2023-07-28T06:40:40;3.10;;;0.95;;
53072;SDS011;38955;48.916;2.336;2023-07-28T06:42:42;4.95;;;1.00;;
53072;SDS011;38955;48.916;2.336;2023-07-28T06:44:44;3.72;;;0.95;;
53072;SDS011;38955;48.916;2.336;2023-07-28T06:46:47;2.70;;;1.10;;
53072;SDS011;38955;48.916;2.336;2023-07-28T06:48:49;2.78;;;1.10;;
53072;SDS011;38955;48.916;2.336;2023-07-28T06:50:51;6.05;;;1.02;;
53072;SDS011;38955;48.916;2.336;2023-07-28T06:52:53;5.90;;;1.05;;
53072;SDS011;38955;48.916;2.336;2023-07-28T06:54:56;2.97;;;0.90;;
53072;SDS011;38955;48.916;2.336;2023-07-28T06:56:58;2.88;;;0.80;;
53072;SDS011;38955;48.916;2.336;2023-07-28T06:59:00;2.30;;;1.05;;
53072;SDS011;38955;48.916;2.336;2023-07-28T07:01:15;12.63;;;1.07;;
53072;SDS011;38955;48.916;2.336;2023-07-28T07:03:19;4.05;;;1.08;;
53072;SDS011;38955;48.916;2.336;2023-07-28T07:05:21;11.80;;;1.33;;
53072;SDS011;38955;48.916;2.336;2023-07-28T07:07:25;7.40;;;1.27;;
53072;SDS011;38955;48.916;2.336;2023-07-28T07:09:31;9.27;;;1.15;;
53072;SDS011;38955;48.916;2.336;2023-07-28T07:11:35;1.23;;;0.90;;
53072;SDS011;38955;48.916;2.336;2023-07-28T07:13:38;3.15;;;1.08;;
53072;SDS011;38955;48.916;2.336;2023-07-28T07:15:40;4.20;;;1.00;;
53072;SDS011;38955;48.916;2.336;2023-07-28T07:17:43;7.93;;;1.13;;
53072;SDS011;38955;48.916;2.336;2023-07-28T07:19:45;3.33;;;0.80;;
53072;SDS011;38955;48.916;2.336;2023-07-28T07:21:48;1.85;;;0.90;;
53072;SDS011;38955;48.916;2.336;2023-07-28T07:23:50;2.38;;;1.00;;
53072;SDS011;38955;48.916;2.336;2023-07-28T07:25:52;3.60;;;0.98;;
53072;SDS011;38955;48.916;2.336;2023-07-28T07:27:56;3.15;;;1.17;;
53072;SDS011;38955;48.916;2.336;2023-07-28T07:29:58;5.00;;;1.10;;
53072;SDS011;38955;48.916;2.336;2023-07-28T07:32:00;5.35;;;1.15;;
53072;SDS011;38955;48.916;2.336;2023-07-28T07:34:02;3.55;;;1.30;;
53072;SDS011;38955;48.916;2.336;2023-07-28T07:36:05;2.38;;;1.10;;
53072;SDS011;38955;48.916;2.336;2023-07-28T07:38:12;4.68;;;1.42;;
53072;SDS011;38955;48.916;2.336;2023-07-28T07:40:15;11.05;;;2.25;;
53072;SDS011;38955;48.916;2.336;2023-07-28T07:42:17;7.40;;;1.63;;
53072;SDS011;38955;48.916;2.336;2023-07-28T07:44:20;7.85;;;1.67;;
53072;SDS011;38955;48.916;2.336;2023-07-28T07:46:22;5.68;;;1.48;;
53072;SDS011;38955;48.916;2.336;2023-07-28T07:48:25;7.68;;;1.80;;
53072;SDS011;38955;48.916;2.336;2023-07-28T07:50:27;8.10;;;2.28;;
53072;SDS011;38955;48.916;2.336;2023-07-28T07:52:29;2.72;;;1.10;;
53072;SDS011;38955;48.916;2.336;2023-07-28T07:54:31;6.80;;;1.17;;
53072;SDS011;38955;48.916;2.336;2023-07-28T07:56:33;5.38;;;1.00;;
53072;SDS011;38955;48.916;2.336;2023-07-28T07:58:35;2.80;;;1.00;;
53072;SDS011;38955;48.916;2.336;2023-07-28T08:00:39;4.75;;;1.50;;
53072;SDS011;38955;48.916;2.336;2023-07-28T08:02:41;3.42;;;1.00;;
53072;SDS011;38955;48.916;2.336;2023-07-28T08:04:47;7.63;;;1.58;;
53072;SDS011;38955;48.916;2.336;2023-07-28T08:06:49;5.20;;;1.00;;
53072;SDS011;38955;48.916;2.336;2023-07-28T08:08:53;10.65;;;1.35;;
53072;SDS011;38955;48.916;2.336;2023-07-28T08:10:56;3.50;;;1.17;;
53072;SDS011;38955;48.916;2.336;2023-07-28T08:12:59;2.75;;;1.27;;
53072;SDS011;38955;48.916;2.336;2023-07-28T08:15:01;5.57;;;1.10;;
53072;SDS011;38955;48.916;2.336;2023-07-28T08:17:05;3.40;;;1.05;;
53072;SDS011;38955;48.916;2.336;2023-07-28T08:19:07;2.83;;;1.08;;
53072;SDS011;38955;48.916;2.336;2023-07-28T08:21:09;2.75;;;1.15;;
53072;SDS011;38955;48.916;2.336;2023-07-28T08:23:11;2.47;;;0.98;;
53072;SDS011;38955;48.916;2.336;2023-07-28T08:25:14;3.83;;;1.20;;
53072;SDS011;38955;48.916;2.336;2023-07-28T08:27:16;5.65;;;1.27;;
53072;SDS011;38955;48.916;2.336;2023-07-28T08:29:18;2.75;;;1.20;;
53072;SDS011;38955;48.916;2.336;2023-07-28T08:31:20;3.65;;;1.33;;
53072;SDS011;38955;48.916;2.336;2023-07-28T08:33:24;3.25;;;1.38;;
53072;SDS011;38955;48.916;2.336;2023-07-28T08:35:26;3.50;;;1.27;;
53072;SDS011;38955;48.916;2.336;2023-07-28T08:37:29;2.67;;;1.02;;
53072;SDS011;38955;48.916;2.336;2023-07-28T08:39:32;5.10;;;1.08;;
53072;SDS011;38955;48.916;2.336;2023-07-28T08:41:34;4.55;;;1.63;;
53072;SDS011;38955;48.916;2.336;2023-07-28T08:43:36;4.47;;;1.30;;
53072;SDS011;38955;48.916;2.336;2023-07-28T08:45:42;6.45;;;1.10;;
53072;SDS011;38955;48.916;2.336;2023-07-28T08:47:44;4.80;;;1.00;;
53072;SDS011;38955;48.916;2.336;2023-07-28T08:49:48;2.67;;;1.10;;
53072;SDS011;38955;48.916;2.336;2023-07-28T08:51:51;1.65;;;0.68;;
53072;SDS011;38955;48.916;2.336;2023-07-28T08:53:58;3.70;;;1.20;;
53072;SDS011;38955;48.916;2.336;2023-07-28T08:56:01;6.90;;;1.50;;
53072;SDS011;38955;48.916;2.336;2023-07-28T08:58:16;4.78;;;1.40;;
53072;SDS011;38955;48.916;2.336;2023-07-28T09:00:20;5.53;;;1.48;;
53072;SDS011;38955;48.916;2.336;2023-07-28T09:02:24;6.28;;;1.77;;
53072;SDS011;38955;48.916;2.336;2023-07-28T09:04:27;11.27;;;1.73;;
53072;SDS011;38955;48.916;2.336;2023-07-28T09:06:31;7.05;;;1.80;;
53072;SDS011;38955;48.916;2.336;2023-07-28T09:08:33;6.72;;;1.30;;
53072;SDS011;38955;48.916;2.336;2023-07-28T09:10:40;5.47;;;1.25;;
53072;SDS011;38955;48.916;2.336;2023-07-28T09:12:47;3.42;;;0.90;;
53072;SDS011;38955;48.916;2.336;2023-07-28T09:14:53;2.25;;;1.00;;
53072;SDS011;38955;48.916;2.336;2023-07-28T09:17:05;2.30;;;1.00;;
53072;SDS011;38955;48.916;2.336;2023-07-28T09:19:08;3.78;;;1.00;;
53072;SDS011;38955;48.916;2.336;2023-07-28T09:21:15;1.70;;;1.10;;
53072;SDS011;38955;48.916;2.336;2023-07-28T09:23:26;1.75;;;1.00;;
53072;SDS011;38955;48.916;2.336;2023-07-28T09:25:30;2.97;;;1.05;;
53072;SDS011;38955;48.916;2.336;2023-07-28T09:27:33;2.72;;;1.10;;
53072;SDS011;38955;48.916;2.336;2023-07-28T09:29:35;5.10;;;1.52;;
53072;SDS011;38955;48.916;2.336;2023-07-28T09:31:37;3.47;;;1.52;;
53072;SDS011;38955;48.916;2.336;2023-07-28T09:33:39;4.38;;;1.52;;
53072;SDS011;38955;48.916;2.336;2023-07-28T09:35:48;2.92;;;1.30;;
53072;SDS011;38955;48.916;2.336;2023-07-28T09:37:50;2.78;;;1.20;;
53072;SDS011;38955;48.916;2.336;2023-07-28T09:39:57;4.00;;;0.80;;
53072;SDS011;38955;48.916;2.336;2023-07-28T09:42:00;4.13;;;1.25;;
53072;SDS011;38955;48.916;2.336;2023-07-28T09:44:03;3.90;;;1.10;;
53072;SDS011;38955;48.916;2.336;2023-07-28T09:46:07;4.35;;;1.30;;
53072;SDS011;38955;48.916;2.336;2023-07-28T09:48:10;5.10;;;2.28;;
53072;SDS011;38955;48.916;2.336;2023-07-28T09:52:18;5.78;;;3.03;;
53072;SDS011;38955;48.916;2.336;2023-07-28T09:54:23;5.22;;;2.95;;
53072;SDS011;38955;48.916;2.336;2023-07-28T09:56:30;3.88;;;2.33;;
53072;SDS011;38955;48.916;2.336;2023-07-28T09:58:33;5.80;;;4.20;;
53072;SDS011;38955;48.916;2.336;2023-07-28T10:00:39;5.68;;;3.92;;
53072;SDS011;38955;48.916;2.336;2023-07-28T10:02:42;4.88;;;2.00;;
53072;SDS011;38955;48.916;2.336;2023-07-28T10:04:45;3.63;;;2.85;;
53072;SDS011;38955;48.916;2.336;2023-07-28T10:06:48;7.30;;;4.45;;
53072;SDS011;38955;48.916;2.336;2023-07-28T10:08:50;4.82;;;3.17;;
53072;SDS011;38955;48.916;2.336;2023-07-28T10:10:53;5.97;;;3.28;;
53072;SDS011;38955;48.916;2.336;2023-07-28T10:12:57;4.85;;;1.98;;
53072;SDS011;38955;48.916;2.336;2023-07-28T10:15:01;6.78;;;2.53;;
53072;SDS011;38955;48.916;2.336;2023-07-28T10:17:04;3.63;;;1.67;;
53072;SDS011;38955;48.916;2.336;2023-07-28T10:19:07;4.10;;;2.58;;
53072;SDS011;38955;48.916;2.336;2023-07-28T10:21:15;2.95;;;1.98;;
53072;SDS011;38955;48.916;2.336;2023-07-28T10:23:19;3.45;;;1.70;;
53072;SDS011;38955;48.916;2.336;2023-07-28T10:25:25;3.55;;;1.10;;
53072;SDS011;38955;48.916;2.336;2023-07-28T10:27:31;2.22;;;1.33;;
53072;SDS011;38955;48.916;2.336;2023-07-28T10:29:39;1.80;;;1.30;;
53072;SDS011;38955;48.916;2.336;2023-07-28T10:34:00;5.07;;;1.50;;
53072;SDS011;38955;48.916;2.336;2023-07-28T10:36:11;2.10;;;1.40;;
53072;SDS011;38955;48.916;2.336;2023-07-28T10:38:31;5.68;;;1.23;;
53072;SDS011;38955;48.916;2.336;2023-07-28T10:40:35;4.93;;;1.08;;
53072;SDS011;38955;48.916;2.336;2023-07-28T10:42:38;2.58;;;1.00;;
53072;SDS011;38955;48.916;2.336;2023-07-28T10:44:41;1.67;;;1.10;;
53072;SDS011;38955;48.916;2.336;2023-07-28T10:46:43;1.48;;;1.00;;
53072;SDS011;38955;48.916;2.336;2023-07-28T10:48:47;1.10;;;1.00;;
53072;SDS011;38955;48.916;2.336;2023-07-28T10:50:50;1.25;;;0.90;;
53072;SDS011;38955;48.916;2.336;2023-07-28T10:52:52;2.13;;;0.95;;
53072;SDS011;38955;48.916;2.336;2023-07-28T10:54:54;1.40;;;0.90;;
53072;SDS011;38955;48.916;2.336;2023-07-28T10:57:01;2.97;;;1.20;;
53072;SDS011;38955;48.916;2.336;2023-07-28T10:59:05;1.80;;;1.02;;
53072;SDS011;38955;48.916;2.336;2023-07-28T11:01:09;2.08;;;1.10;;
53072;SDS011;38955;48.916;2.336;2023-07-28T11:03:12;3.25;;;1.67;;
53072;SDS011;38955;48.916;2.336;2023-07-28T11:05:18;2.75;;;1.50;;
53072;SDS011;38955;48.916;2.336;2023-07-28T11:07:21;5.32;;;3.55;;
53072;SDS011;38955;48.916;2.336;2023-07-28T11:09:23;3.40;;;2.35;;
53072;SDS011;38955;48.916;2.336;2023-07-28T11:11:25;3.42;;;2.30;;
53072;SDS011;38955;48.916;2.336;2023-07-28T11:13:29;1.83;;;1.30;;
53072;SDS011;38955;48.916;2.336;2023-07-28T11:15:41;4.32;;;1.75;;
53072;SDS011;38955;48.916;2.336;2023-07-28T11:17:45;3.15;;;1.65;;
53072;SDS011;38955;48.916;2.336;2023-07-28T11:19:48;3.40;;;1.80;;
53072;SDS011;38955;48.916;2.336;2023-07-28T11:21:51;3.58;;;1.50;;
53072;SDS011;38955;48.916;2.336;2023-07-28T11:23:54;2.50;;;1.55;;
53072;SDS011;38955;48.916;2.336;2023-07-28T11:25:56;2.03;;;1.40;;
53072;SDS011;38955;48.916;2.336;2023-07-28T11:28:00;2.63;;;1.90;;
53072;SDS011;38955;48.916;2.336;2023-07-28T11:30:03;2.53;;;1.50;;
53072;SDS011;38955;48.916;2.336;2023-07-28T11:32:06;3.88;;;1.98;;
53072;SDS011;38955;48.916;2.336;2023-07-28T11:34:15;3.92;;;2.25;;
53072;SDS011;38955;48.916;2.336;2023-07-28T11:36:21;3.80;;;2.63;;
53072;SDS011;38955;48.916;2.336;2023-07-28T11:38:24;2.80;;;1.98;;
53072;SDS011;38955;48.916;2.336;2023-07-28T11:40:27;6.32;;;3.67;;
53072;SDS011;38955;48.916;2.336;2023-07-28T11:42:29;3.08;;;1.70;;
53072;SDS011;38955;48.916;2.336;2023-07-28T11:44:32;5.57;;;1.92;;
53072;SDS011;38955;48.916;2.336;2023-07-28T11:46:34;2.00;;;1.50;;
53072;SDS011;38955;48.916;2.336;2023-07-28T11:48:38;2.47;;;1.67;;
53072;SDS011;38955;48.916;2.336;2023-07-28T11:50:41;17.20;;;2.63;;
53072;SDS011;38955;48.916;2.336;2023-07-28T11:52:44;2.53;;;1.80;;
53072;SDS011;38955;48.916;2.336;2023-07-28T11:54:47;1.92;;;1.67;;
53072;SDS011;38955;48.916;2.336;2023-07-28T11:56:50;3.25;;;1.77;;
53072;SDS011;38955;48.916;2.336;2023-07-28T11:58:56;2.63;;;2.00;;
53072;SDS011;38955;48.916;2.336;2023-07-28T12:00:58;2.63;;;1.73;;
53072;SDS011;38955;48.916;2.336;2023-07-28T12:03:01;1.67;;;1.52;;
53072;SDS011;38955;48.916;2.336;2023-07-28T12:05:11;3.38;;;1.70;;
53072;SDS011;38955;48.916;2.336;2023-07-28T12:07:18;3.33;;;1.48;;
53072;SDS011;38955;48.916;2.336;2023-07-28T12:09:20;6.33;;;1.50;;
53072;SDS011;38955;48.916;2.336;2023-07-28T12:11:23;2.08;;;1.20;;
53072;SDS011;38955;48.916;2.336;2023-07-28T12:13:48;3.25;;;1.83;;
53072;SDS011;38955;48.916;2.336;2023-07-28T12:15:53;2.70;;;1.35;;
53072;SDS011;38955;48.916;2.336;2023-07-28T12:18:03;1.77;;;1.30;;
53072;SDS011;38955;48.916;2.336;2023-07-28T12:20:15;2.03;;;1.52;;
53072;SDS011;38955;48.916;2.336;2023-07-28T12:22:19;3.28;;;1.48;;
53072;SDS011;38955;48.916;2.336;2023-07-28T12:24:22;4.07;;;1.52;;
53072;SDS011;38955;48.916;2.336;2023-07-28T12:26:24;2.85;;;1.38;;
53072;SDS011;38955;48.916;2.336;2023-07-28T12:28:31;3.40;;;1.25;;
53072;SDS011;38955;48.916;2.336;2023-07-28T12:30:38;3.50;;;1.20;;